createdAt,value
2019-04-13T00:00:50.147Z,4.90
2019-04-13T00:03:19.107Z,5.50
2019-04-13T00:06:09.485Z,5.73
2019-04-13T00:08:38.545Z,5.03
2019-04-13T00:11:16.533Z,5.20
2019-04-13T00:13:45.257Z,5.93
2019-04-13T00:16:13.985Z,4.83
2019-04-13T00:18:42.757Z,5.53
2019-04-13T00:21:11.561Z,5.50
2019-04-13T00:23:40.285Z,5.87
2019-04-13T00:26:09.105Z,6.40
2019-04-13T00:28:37.835Z,6.00
2019-04-13T00:31:06.539Z,6.30
2019-04-13T00:33:35.289Z,5.83
2019-04-13T00:36:04.093Z,6.33
2019-04-13T00:38:32.809Z,6.53
2019-04-13T00:41:01.554Z,5.87
2019-04-13T00:43:30.288Z,6.37
2019-04-13T00:45:59.180Z,6.73
2019-04-13T00:48:27.935Z,6.93
2019-04-13T00:50:56.647Z,5.60
2019-04-13T00:53:25.373Z,6.67
2019-04-13T00:55:54.101Z,5.90
2019-04-13T00:58:22.789Z,6.83
2019-04-13T01:00:58.140Z,9.70
2019-04-13T01:03:27.022Z,6.73
2019-04-13T01:05:55.744Z,6.87
2019-04-13T01:08:24.490Z,6.80
2019-04-13T01:10:53.260Z,6.13
2019-04-13T01:13:21.957Z,7.50
2019-04-13T01:15:50.709Z,6.70
2019-04-13T01:18:19.406Z,6.50
2019-04-13T01:20:48.121Z,7.50
2019-04-13T01:23:16.921Z,6.97
2019-04-13T01:25:45.617Z,6.67
2019-04-13T01:28:14.512Z,6.57
2019-04-13T01:30:43.248Z,6.60
2019-04-13T01:33:12.049Z,7.50
2019-04-13T01:35:40.852Z,7.27
2019-04-13T01:38:09.649Z,7.23
2019-04-13T01:40:38.382Z,7.07
2019-04-13T01:43:07.111Z,7.03
2019-04-13T01:45:35.835Z,6.77
2019-04-13T01:48:04.623Z,7.20
2019-04-13T01:50:33.321Z,7.17
2019-04-13T01:53:02.037Z,6.90
2019-04-13T01:55:30.766Z,7.30
2019-04-13T01:57:59.550Z,7.73
2019-04-13T02:00:37.517Z,7.10
2019-04-13T02:03:06.239Z,6.90
2019-04-13T02:05:40.137Z,7.00
2019-04-13T02:08:14.264Z,6.83
2019-04-13T02:10:45.597Z,7.57
2019-04-13T02:13:14.301Z,7.40
2019-04-13T02:15:43.101Z,6.57
2019-04-13T02:18:11.837Z,6.90
2019-04-13T02:20:40.532Z,7.47
2019-04-13T02:23:09.265Z,7.60
2019-04-13T02:25:37.954Z,7.43
2019-04-13T02:28:06.653Z,7.73
2019-04-13T02:30:35.362Z,8.03
2019-04-13T02:33:04.183Z,6.73
2019-04-13T02:35:35.924Z,7.73
2019-04-13T02:38:03.413Z,7.67
2019-04-13T02:40:32.143Z,7.17
2019-04-13T02:43:02.420Z,7.30
2019-04-13T02:45:31.130Z,7.37
2019-04-13T02:47:59.970Z,7.83
2019-04-13T02:50:28.704Z,7.40
2019-04-13T02:52:57.453Z,7.97
2019-04-13T02:55:26.185Z,8.37
2019-04-13T02:57:56.374Z,8.47
2019-04-13T03:00:25.215Z,8.27
2019-04-13T03:02:54.085Z,8.37
2019-04-13T03:05:22.835Z,8.47
2019-04-13T03:07:51.607Z,8.10
2019-04-13T03:10:20.401Z,7.87
2019-04-13T03:12:49.281Z,8.17
2019-04-13T03:15:18.094Z,8.30
2019-04-13T03:17:52.197Z,8.87
2019-04-13T03:20:24.390Z,8.20
2019-04-13T03:22:53.105Z,8.07
2019-04-13T03:25:21.878Z,7.87
2019-04-13T03:27:50.597Z,8.30
2019-04-13T03:30:22.898Z,7.67
2019-04-13T03:32:51.610Z,8.10
2019-04-13T03:35:20.402Z,7.90
2019-04-13T03:37:49.280Z,7.50
2019-04-13T03:40:18.050Z,8.83
2019-04-13T03:42:46.886Z,7.57
2019-04-13T03:45:15.749Z,8.30
2019-04-13T03:47:44.521Z,8.00
2019-04-13T03:50:13.439Z,8.53
2019-04-13T03:52:42.213Z,7.60
2019-04-13T03:55:10.915Z,8.77
2019-04-13T03:57:39.697Z,8.03
2019-04-13T04:00:08.681Z,7.97
2019-04-13T04:02:37.405Z,8.90
2019-04-13T04:05:06.613Z,7.93
2019-04-13T04:07:35.325Z,8.60
2019-04-13T04:10:04.655Z,7.13
2019-04-13T04:12:33.374Z,7.63
2019-04-13T04:15:02.156Z,7.73
2019-04-13T04:17:30.858Z,8.30
2019-04-13T04:19:59.773Z,8.23
2019-04-13T04:22:28.509Z,8.27
2019-04-13T04:24:57.238Z,8.53
2019-04-13T04:27:26.004Z,9.90
2019-04-13T04:29:54.710Z,8.33
2019-04-13T04:32:23.413Z,8.23
2019-04-13T04:34:52.173Z,8.83
2019-04-13T04:37:20.922Z,8.53
2019-04-13T04:39:49.650Z,8.47
2019-04-13T04:42:18.370Z,8.67
2019-04-13T04:44:47.133Z,7.43
2019-04-13T04:47:15.873Z,7.60
2019-04-13T04:49:44.999Z,8.20
2019-04-13T04:52:13.726Z,8.83
2019-04-13T04:54:42.434Z,8.33
2019-04-13T04:57:11.152Z,8.33
2019-04-13T04:59:39.865Z,9.60
2019-04-13T05:02:08.573Z,9.53
2019-04-13T05:04:37.410Z,9.03
2019-04-13T05:07:06.161Z,8.63
2019-04-13T05:09:34.890Z,8.83
2019-04-13T05:12:03.997Z,8.60
2019-04-13T05:14:32.731Z,8.73
2019-04-13T05:17:01.444Z,9.03
2019-04-13T05:19:30.185Z,9.27
2019-04-13T05:21:59.556Z,9.13
2019-04-13T05:24:28.325Z,7.57
2019-04-13T05:26:57.078Z,8.10
2019-04-13T05:29:25.809Z,8.67
2019-04-13T05:31:54.533Z,8.87
2019-04-13T05:34:23.382Z,8.33
2019-04-13T05:36:52.135Z,8.60
2019-04-13T05:39:20.871Z,8.13
2019-04-13T05:41:49.610Z,7.70
2019-04-13T05:44:18.320Z,8.50
2019-04-13T05:46:47.032Z,8.37
2019-04-13T05:49:15.869Z,8.03
2019-04-13T05:51:44.645Z,7.50
2019-04-13T05:54:13.397Z,8.10
2019-04-13T05:56:42.220Z,7.73
2019-04-13T05:59:10.950Z,7.50
2019-04-13T06:01:39.685Z,8.67
2019-04-13T06:04:08.437Z,8.17
2019-04-13T06:06:37.254Z,7.67
2019-04-13T06:09:08.065Z,7.80
2019-04-13T06:11:36.944Z,8.80
2019-04-13T06:14:05.885Z,7.83
2019-04-13T06:16:34.582Z,8.63
2019-04-13T06:19:03.377Z,7.27
2019-04-13T06:21:32.097Z,8.30
2019-04-13T06:24:00.907Z,7.47
2019-04-13T06:26:29.657Z,8.23
2019-04-13T06:28:58.472Z,8.23
2019-04-13T06:31:51.159Z,7.33
2019-04-13T06:34:28.444Z,8.40
2019-04-13T06:36:57.202Z,9.03
2019-04-13T06:39:25.923Z,7.97
2019-04-13T06:41:54.767Z,8.30
2019-04-13T06:44:23.603Z,9.10
2019-04-13T06:46:52.365Z,7.40
2019-04-13T06:49:24.016Z,8.60
2019-04-13T06:51:52.743Z,8.77
2019-04-13T06:54:21.546Z,7.73
2019-04-13T06:56:50.325Z,8.27
2019-04-13T06:59:19.089Z,8.53
2019-04-13T07:01:47.812Z,8.83
2019-04-13T07:04:16.629Z,8.07
2019-04-13T07:06:47.812Z,8.53
2019-04-13T07:09:26.076Z,7.63
2019-04-13T07:12:21.325Z,8.27
2019-04-13T07:14:53.276Z,8.03
2019-04-13T07:17:26.470Z,7.80
2019-04-13T07:19:55.170Z,9.33
2019-04-13T07:22:24.041Z,8.27
2019-04-13T07:24:52.757Z,7.60
2019-04-13T07:27:21.529Z,7.93
2019-04-13T07:29:53.131Z,7.67
2019-04-13T07:32:20.629Z,7.00
2019-04-13T07:34:49.349Z,8.10
2019-04-13T07:37:18.062Z,7.70
2019-04-13T07:39:48.324Z,7.90
2019-04-13T07:42:17.289Z,7.47
2019-04-13T07:44:57.236Z,6.83
2019-04-13T07:47:34.261Z,7.27
2019-04-13T07:50:20.957Z,6.97
2019-04-13T07:52:49.661Z,6.47
2019-04-13T07:55:19.225Z,6.90
2019-04-13T07:57:48.490Z,6.83
2019-04-13T08:00:17.337Z,5.20
2019-04-13T08:02:46.058Z,4.53
2019-04-13T08:05:17.730Z,5.13
2019-04-13T08:07:49.916Z,4.77
2019-04-13T08:10:17.559Z,4.73
2019-04-13T08:12:46.297Z,4.53
2019-04-13T08:15:16.721Z,4.77
2019-04-13T08:17:45.430Z,4.33
2019-04-13T08:20:34.389Z,4.87
2019-04-13T08:23:04.071Z,4.60
2019-04-13T08:25:41.644Z,4.23
2019-04-13T08:28:15.347Z,4.30
2019-04-13T08:30:42.706Z,4.30
2019-04-13T08:33:11.533Z,4.03
2019-04-13T08:35:42.493Z,4.20
2019-04-13T08:40:41.211Z,4.23
2019-04-13T08:41:09.826Z,4.40
2019-04-13T08:43:09.908Z,4.47
2019-04-13T08:45:38.625Z,4.07
2019-04-13T08:48:07.356Z,4.20
2019-04-13T08:50:36.165Z,4.50
2019-04-13T08:53:04.972Z,3.87
2019-04-13T08:55:33.745Z,3.87
2019-04-13T08:58:02.464Z,3.77
2019-04-13T09:00:31.235Z,4.13
2019-04-13T09:03:00.025Z,3.77
2019-04-13T09:05:28.806Z,3.27
2019-04-13T09:07:57.516Z,3.57
2019-04-13T09:10:30.143Z,3.20
2019-04-13T09:13:03.067Z,3.37
2019-04-13T09:15:32.753Z,3.23
2019-04-13T09:18:12.079Z,3.50
2019-04-13T09:20:46.047Z,3.60
2019-04-13T09:23:14.789Z,2.93
2019-04-13T09:25:43.514Z,3.10
2019-04-13T09:28:12.642Z,3.47
2019-04-13T09:30:42.158Z,3.10
2019-04-13T09:33:10.940Z,3.20
2019-04-13T09:35:39.833Z,3.40
2019-04-13T09:38:08.605Z,3.30
2019-04-13T09:40:37.505Z,3.17
2019-04-13T09:43:08.053Z,3.20
2019-04-13T09:45:37.101Z,3.00
2019-04-13T09:48:08.714Z,2.90
2019-04-13T09:50:37.548Z,3.00
2019-04-13T09:53:06.328Z,2.83
2019-04-13T09:55:35.044Z,2.60
2019-04-13T09:58:03.874Z,2.97
2019-04-13T10:00:32.690Z,2.83
2019-04-13T10:03:01.409Z,3.50
2019-04-13T10:05:30.270Z,3.30
2019-04-13T10:07:59.038Z,3.00
2019-04-13T10:10:27.801Z,2.90
2019-04-13T10:13:05.867Z,2.80
2019-04-13T10:15:54.900Z,2.90
2019-04-13T10:18:37.590Z,2.80
2019-04-13T10:21:06.317Z,2.63
2019-04-13T10:23:35.021Z,2.40
2019-04-13T10:26:03.965Z,2.40
2019-04-13T10:28:32.752Z,2.30
2019-04-13T10:31:01.493Z,2.77
2019-04-13T10:33:30.250Z,2.73
2019-04-13T10:35:58.965Z,2.63
2019-04-13T10:38:27.717Z,2.83
2019-04-13T10:40:56.523Z,2.93
2019-04-13T10:43:25.360Z,2.50
2019-04-13T10:46:11.950Z,2.10
2019-04-13T10:49:00.527Z,2.20
2019-04-13T10:51:54.298Z,2.33
2019-04-13T10:54:23.107Z,2.10
2019-04-13T10:56:51.815Z,2.27
2019-04-13T10:59:20.639Z,2.30
2019-04-13T11:01:49.443Z,2.17
2019-04-13T11:04:18.220Z,2.27
2019-04-13T11:06:47.570Z,2.60
2019-04-13T11:09:28.397Z,2.37
2019-04-13T11:11:52.126Z,1.90
2019-04-13T11:14:20.826Z,2.23
2019-04-13T11:16:49.680Z,2.20
2019-04-13T11:19:18.412Z,2.30
2019-04-13T11:21:47.792Z,2.23
2019-04-13T11:24:16.618Z,2.40
2019-04-13T11:26:45.425Z,2.20
2019-04-13T11:29:14.519Z,2.63
2019-04-13T11:31:43.300Z,2.40
2019-04-13T11:34:12.033Z,2.20
2019-04-13T11:36:40.764Z,2.40
2019-04-13T11:39:09.475Z,2.20
2019-04-13T11:41:54.765Z,2.90
2019-04-13T11:44:51.597Z,2.20
2019-04-13T11:47:39.692Z,2.63
2019-04-13T11:50:14.350Z,2.50
2019-04-13T11:52:43.085Z,2.43
2019-04-13T11:55:11.893Z,2.20
2019-04-13T11:57:40.711Z,2.70
2019-04-13T12:00:26.892Z,2.60
2019-04-13T12:02:57.230Z,3.00
2019-04-13T12:05:41.627Z,2.73
2019-04-13T12:08:16.419Z,2.80
2019-04-13T12:11:02.510Z,2.60
2019-04-13T12:13:49.422Z,2.87
2019-04-13T12:16:36.502Z,2.60
2019-04-13T12:19:23.197Z,3.20
2019-04-13T12:22:09.087Z,2.87
2019-04-13T12:24:37.882Z,3.37
2019-04-13T12:27:06.869Z,2.80
2019-04-13T12:29:38.550Z,3.73
2019-04-13T12:32:10.499Z,2.60
2019-04-13T12:34:39.224Z,2.30
2019-04-13T12:37:09.334Z,2.57
2019-04-13T12:39:40.238Z,2.77
2019-04-13T12:42:08.631Z,3.40
2019-04-13T12:44:38.326Z,2.67
2019-04-13T12:47:10.118Z,3.23
2019-04-13T12:49:39.101Z,2.93
2019-04-13T12:52:07.974Z,2.80
2019-04-13T12:54:37.385Z,3.20
2019-04-13T12:57:06.746Z,2.70
2019-04-13T12:59:36.473Z,3.17
2019-04-13T13:02:24.847Z,2.87
2019-04-13T13:04:59.541Z,3.23
2019-04-13T13:07:28.409Z,2.83
2019-04-13T13:09:57.118Z,3.10
2019-04-13T13:12:25.909Z,3.13
2019-04-13T13:14:54.651Z,2.20
2019-04-13T13:17:25.915Z,2.43
2019-04-13T13:19:53.878Z,2.43
2019-04-13T13:22:22.687Z,2.20
2019-04-13T13:24:51.430Z,2.10
2019-04-13T13:27:20.239Z,1.97
2019-04-13T13:29:48.981Z,2.00
2019-04-13T13:32:18.183Z,1.77
2019-04-13T13:34:47.088Z,1.90
2019-04-13T13:37:15.922Z,1.83
2019-04-13T13:39:45.544Z,2.60
2019-04-13T13:42:14.549Z,2.30
2019-04-13T13:44:43.263Z,1.60
2019-04-13T13:47:11.993Z,1.83
2019-04-13T13:49:40.718Z,2.10
2019-04-13T13:52:09.426Z,2.33
2019-04-13T13:54:38.169Z,2.00
2019-04-13T13:57:06.944Z,2.10
2019-04-13T13:59:35.642Z,2.03
2019-04-13T14:02:17.297Z,1.83
2019-04-13T14:04:44.373Z,2.00
2019-04-13T14:07:13.152Z,1.73
2019-04-13T14:09:44.065Z,2.83
2019-04-13T14:12:12.934Z,1.80
2019-04-13T14:14:41.662Z,1.80
2019-04-13T14:17:10.465Z,1.80
2019-04-13T14:19:39.170Z,1.67
2019-04-13T14:22:07.921Z,1.70
2019-04-13T14:24:36.654Z,2.00
2019-04-13T14:27:05.460Z,2.00
2019-04-13T14:29:34.201Z,2.20
2019-04-13T14:32:02.918Z,2.33
2019-04-13T14:34:31.760Z,2.37
2019-04-13T14:37:00.611Z,2.70
2019-04-13T14:39:29.344Z,2.53
2019-04-13T14:41:58.161Z,2.90
2019-04-13T14:44:26.993Z,2.57
2019-04-13T14:46:55.710Z,2.17
2019-04-13T14:49:25.622Z,2.87
2019-04-13T14:51:54.862Z,2.73
2019-04-13T14:54:23.613Z,2.67
2019-04-13T14:56:52.333Z,3.00
2019-04-13T14:59:21.111Z,2.53
2019-04-13T15:01:49.858Z,2.53
2019-04-13T15:04:18.557Z,2.27
2019-04-13T15:06:47.272Z,2.30
2019-04-13T15:09:17.604Z,2.37
2019-04-13T15:11:46.473Z,2.20
2019-04-13T15:14:15.205Z,2.30
2019-04-13T15:16:45.653Z,2.40
2019-04-13T15:19:29.208Z,2.30
2019-04-13T15:21:48.291Z,2.60
2019-04-13T15:24:19.695Z,2.40
2019-04-13T15:26:50.841Z,1.97
2019-04-13T15:29:20.733Z,2.27
2019-04-13T15:31:48.908Z,2.20
2019-04-13T15:34:18.326Z,2.20
2019-04-13T15:36:48.512Z,2.60
2019-04-13T15:39:18.577Z,2.33
2019-04-13T15:42:00.193Z,2.67
2019-04-13T15:44:19.805Z,2.40
2019-04-13T15:46:48.861Z,2.40
2019-04-13T15:49:17.778Z,2.77
2019-04-13T15:51:47.616Z,2.70
2019-04-13T15:54:16.760Z,2.70
2019-04-13T15:56:46.064Z,2.62
2019-04-13T15:59:18.206Z,2.62
2019-04-13T16:01:48.087Z,2.30
2019-04-13T16:04:16.964Z,2.35
2019-04-13T16:06:46.446Z,2.05
2019-04-13T16:09:39.562Z,2.10
2019-04-13T16:12:17.022Z,2.00
2019-04-13T16:14:48.462Z,1.98
2019-04-13T16:17:18.659Z,2.25
2019-04-13T16:19:50.721Z,2.20
2019-04-13T16:22:19.441Z,1.70
2019-04-13T16:24:48.325Z,2.10
2019-04-13T16:27:17.146Z,2.03
2019-04-13T16:29:53.378Z,2.60
2019-04-13T16:32:44.764Z,2.40
2019-04-13T16:35:22.309Z,2.77
2019-04-13T16:37:51.120Z,2.70
2019-04-13T16:40:20.708Z,2.90
2019-04-13T16:42:49.513Z,3.23
2019-04-13T16:45:44.351Z,2.17
2019-04-13T16:48:31.737Z,1.90
2019-04-13T16:51:21.878Z,2.23
2019-04-13T16:54:00.435Z,2.30
2019-04-13T16:56:32.093Z,2.00
2019-04-13T16:59:13.598Z,2.03
2019-04-13T17:02:02.519Z,2.20
2019-04-13T17:04:40.015Z,2.27
2019-04-13T17:07:09.192Z,2.00
2019-04-13T17:09:39.260Z,2.20
2019-04-13T17:12:19.415Z,2.30
2019-04-13T17:14:39.236Z,2.27
2019-04-13T17:17:09.308Z,2.40
2019-04-13T17:19:56.041Z,2.37
2019-04-13T17:22:54.145Z,6.57
2019-04-13T17:25:43.486Z,21.03
2019-04-13T17:28:33.001Z,6.93
2019-04-13T17:31:19.903Z,3.10
2019-04-13T17:33:54.122Z,2.53
2019-04-13T17:36:23.057Z,2.30
2019-04-13T17:38:51.848Z,2.23
2019-04-13T17:41:40.465Z,2.50
2019-04-13T17:44:14.645Z,2.17
2019-04-13T17:47:08.048Z,2.63
2019-04-13T17:49:59.366Z,2.20
2019-04-13T17:52:48.719Z,2.37
2019-04-13T17:55:36.346Z,2.37
2019-04-13T17:58:23.413Z,2.30
2019-04-13T18:01:12.371Z,2.90
2019-04-13T18:04:10.180Z,2.57
2019-04-13T18:06:53.026Z,2.57
2019-04-13T18:09:41.514Z,2.60
2019-04-13T18:12:24.445Z,2.67
2019-04-13T18:15:00.928Z,3.43
2019-04-13T18:18:01.854Z,3.50
2019-04-13T18:20:32.110Z,3.60
2019-04-13T18:23:01.041Z,3.50
2019-04-13T18:25:35.685Z,3.43
2019-04-13T18:28:00.310Z,3.77
2019-04-13T18:30:33.511Z,4.33
2019-04-13T18:33:00.945Z,3.80
2019-04-13T18:35:31.057Z,3.43
2019-04-13T18:38:00.062Z,4.10
2019-04-13T18:40:28.826Z,3.33
2019-04-13T18:43:06.905Z,3.40
2019-04-13T18:45:28.664Z,3.77
2019-04-13T18:47:57.882Z,3.90
2019-04-13T18:50:26.856Z,3.63
2019-04-13T18:52:55.621Z,3.73
2019-04-13T18:55:24.511Z,4.63
2019-04-13T18:57:53.344Z,4.40
2019-04-13T19:00:22.225Z,4.13
2019-04-13T19:02:52.033Z,3.93
2019-04-13T19:05:20.908Z,4.20
2019-04-13T19:07:49.621Z,4.77
2019-04-13T19:10:18.350Z,4.50
2019-04-13T19:12:47.150Z,4.50
2019-04-13T19:15:15.993Z,3.73
2019-04-13T19:17:44.785Z,4.23
2019-04-13T19:20:13.737Z,4.77
2019-04-13T19:22:42.449Z,4.10
2019-04-13T19:25:11.327Z,4.10
2019-04-13T19:27:40.081Z,4.07
2019-04-13T19:30:09.074Z,3.60
2019-04-13T19:32:37.963Z,4.10
2019-04-13T19:35:06.895Z,4.10
2019-04-13T19:37:35.795Z,4.27
2019-04-13T19:40:05.152Z,4.77
2019-04-13T19:42:33.948Z,4.47
2019-04-13T19:45:02.643Z,5.10
2019-04-13T19:47:31.329Z,5.00
2019-04-13T19:50:00.065Z,4.73
2019-04-13T19:52:42.717Z,4.33
2019-04-13T19:55:11.445Z,4.47
2019-04-13T19:57:40.245Z,4.30
2019-04-13T20:00:11.686Z,4.90
2019-04-13T20:02:40.469Z,4.70
2019-04-13T20:05:09.234Z,4.30
2019-04-13T20:07:37.959Z,5.17
2019-04-13T20:10:09.197Z,5.20
2019-04-13T20:12:38.419Z,5.07
2019-04-13T20:15:07.785Z,6.37
2019-04-13T20:17:36.577Z,5.97
2019-04-13T20:20:05.720Z,5.60
2019-04-13T20:22:34.495Z,5.80
2019-04-13T20:25:03.422Z,5.73
2019-04-13T20:27:32.528Z,5.33
2019-04-13T20:30:02.270Z,4.93
2019-04-13T20:32:31.966Z,5.37
2019-04-13T20:35:02.060Z,5.70
2019-04-13T20:37:31.632Z,5.23
2019-04-13T20:40:12.496Z,5.27
2019-04-13T20:42:41.671Z,5.83
2019-04-13T20:45:11.230Z,6.23
2019-04-13T20:47:41.323Z,6.67
2019-04-13T20:50:10.342Z,6.50
2019-04-13T20:52:39.069Z,5.83
2019-04-13T20:55:11.220Z,5.87
2019-04-13T20:57:39.136Z,6.07
2019-04-13T21:00:09.588Z,6.33
2019-04-13T21:02:39.566Z,6.70
2019-04-13T21:05:08.517Z,7.40
2019-04-13T21:07:38.017Z,6.70
2019-04-13T21:10:07.161Z,7.77
2019-04-13T21:12:36.005Z,8.03
2019-04-13T21:15:05.474Z,7.17
2019-04-13T21:17:35.333Z,7.47
2019-04-13T21:20:07.621Z,7.60
2019-04-13T21:22:36.415Z,7.90
2019-04-13T21:25:05.735Z,7.83
2019-04-13T21:27:35.537Z,7.77
2019-04-13T21:30:05.756Z,7.83
2019-04-13T21:32:35.660Z,7.43
2019-04-13T21:35:05.787Z,7.73
2019-04-13T21:37:35.580Z,6.83
2019-04-13T21:40:10.117Z,7.33
2019-04-13T21:42:40.181Z,6.90
2019-04-13T21:45:10.304Z,7.23
2019-04-13T21:47:40.397Z,7.70
2019-04-13T21:50:28.947Z,8.00
2019-04-13T21:53:03.016Z,7.37
2019-04-13T21:55:37.688Z,7.30
2019-04-13T21:58:07.861Z,7.80
2019-04-13T22:00:53.305Z,7.80
2019-04-13T22:03:23.047Z,7.73
2019-04-13T22:05:52.872Z,8.20
2019-04-13T22:08:23.019Z,8.67
2019-04-13T22:10:52.934Z,8.70
2019-04-13T22:13:22.775Z,9.00
2019-04-13T22:15:52.909Z,9.73
2019-04-13T22:18:21.735Z,8.30
2019-04-13T22:20:50.850Z,8.63
2019-04-13T22:23:21.493Z,9.13
2019-04-13T22:25:50.241Z,8.00
2019-04-13T22:28:21.521Z,8.07
2019-04-13T22:31:03.179Z,8.10
2019-04-13T22:33:32.775Z,8.90
2019-04-13T22:36:07.069Z,8.80
2019-04-13T22:38:37.040Z,8.20
2019-04-13T22:41:06.970Z,8.50
2019-04-13T22:43:36.881Z,8.17
2019-04-13T22:46:06.426Z,8.97
2019-04-13T22:48:54.088Z,8.13
2019-04-13T22:51:57.547Z,8.13
2019-04-13T22:54:45.311Z,8.07
2019-04-13T22:57:43.358Z,7.77
2019-04-13T23:00:17.204Z,8.20
2019-04-13T23:02:53.994Z,9.10
2019-04-13T23:05:24.420Z,8.70
2019-04-13T23:07:54.499Z,8.67
2019-04-13T23:10:24.609Z,8.83
2019-04-13T23:12:53.542Z,9.60
2019-04-13T23:15:28.743Z,9.60
2019-04-13T23:17:53.035Z,8.90
2019-04-13T23:20:21.841Z,8.80
2019-04-13T23:22:50.565Z,8.77
2019-04-13T23:25:20.143Z,8.87
2019-04-13T23:27:50.104Z,9.20
2019-04-13T23:30:20.389Z,8.97
2019-04-13T23:32:49.398Z,8.47
2019-04-13T23:35:19.178Z,8.90
2019-04-13T23:37:48.057Z,9.50
2019-04-13T23:40:18.068Z,9.73
2019-04-13T23:42:48.341Z,9.13
2019-04-13T23:45:27.616Z,9.03
2019-04-13T23:47:51.667Z,9.00
2019-04-13T23:50:20.433Z,8.90
2019-04-13T23:52:50.060Z,8.87
2019-04-13T23:55:24.682Z,8.70
2019-04-13T23:58:19.289Z,8.23
